aviador You're here:

SAWE Decoded Metar

RIO GRANDE in ARGENTINA
Report Time2017-06-25 20:00:00
UTC Time2017-06-25 20:35:51
Flight Rules vfr VFR
Wind310° at 07 kt
W.Decomp.*RWY 25: 4.7 kt HW 5.2 kt RCW
W.Rank310° ranks 28
Current wind is below 310° avg. (9.5)
Visibility9999 m
Phenomena:N/A
Clouds:N/A
Expected CloudBase > 800 ft AGL from Temp-Dew spread
CeilingNone
Temp-2°C (ISA -17)
Dew Point-4°C (86% RH)
AAT-7.0°C
QNH1019 hPa
Density Alt-2,139 ft
Elevation72 ft
Report Wrong Elevation
Raw Report
METAR SAWE 252000Z 31007KT CAVOK M02/M04 Q1019=

Extra information for SAWE:More info

Metar Taf Metar & Taf Last 4 Metars F.Rules Stats Wind Profile Meteogram Temp Stats Airport Information Weather charts Add Link Nearby VenuesMetar ALERT Operation Metar Decoded Social comments